HPD weather

Policia De La Provincia De Mendoza Heliport
Mendoza, Mendoza Province, Argentina

Public forecast

Using degrees Celsius for public forecast. Weather courtesy of forecast.io.

METAR (pilot weather report)

Closest report is El Plumerillo Airport, 4.7 nm (8.7 km) NE. Retrieved 2019/07/16 03:00 UTC (30 minutes ago):

SAME 160300Z 23002KT CAVOK 06/M00 Q1022

TAF (pilot weather forecast)

Closest forecast is El Plumerillo Airport, 4.7 nm (8.7 km) NE. Retrieved 2019/07/16 00:00 UTC (4 hours ago):

TAF SAME 152300Z 1600/1624 20005KT CAVOK TX19/1619Z TN03/1611Z PROB30 TEMPO 1611/1614 16005KT 6000 HZFU NSC BECMG 1614/1616 36005KT